Time;durP1;ratioP1;P1;durP2;ratioP2;P2;SDS_P1;SDS_P2;PMS_P1;PMS_P2;Temp;Humidity;BMP_temperature;BMP_pressure;BME280_temperature;BME280_humidity;BME280_pressure;Samples;Min_cycle;Max_cycle;Signal;HPM_P1;HPM_P2
2022/05/02 00:01:24;;;;;;;10.27;8.18;;;10.20;70.70;;;;;;5051896;28;20530;-67
2022/05/02 00:03:49;;;;;;;11.57;8.07;;;10.10;70.90;;;;;;5051912;28;20025;-67
2022/05/02 00:06:15;;;;;;;10.77;8.57;;;10.10;71.10;;;;;;5051402;28;20086;-68
2022/05/02 00:08:40;;;;;;;10.10;8.00;;;10.00;71.30;;;;;;5052222;28;20025;-67
2022/05/02 00:11:06;;;;;;;12.68;8.27;;;10.00;71.50;;;;;;5052075;28;20480;-67
2022/05/02 00:13:32;;;;;;;10.15;7.53;;;10.00;71.80;;;;;;5051813;28;20032;-67
2022/05/02 00:15:58;;;;;;;9.73;7.55;;;9.90;71.90;;;;;;5051791;28;20025;-67
2022/05/02 00:18:24;;;;;;;10.77;8.65;;;9.90;72.10;;;;;;5055667;28;20048;-67
2022/05/02 00:20:49;;;;;;;10.15;7.75;;;9.90;72.30;;;;;;5055834;28;20075;-67
2022/05/02 00:23:15;;;;;;;10.98;7.90;;;9.80;72.40;;;;;;5055711;28;20036;-67
2022/05/02 00:25:41;;;;;;;10.80;8.07;;;9.80;72.50;;;;;;5055553;28;20057;-67
2022/05/02 00:28:12;;;;;;;11.80;9.07;;;9.80;72.60;;;;;;5055530;28;20029;-67
2022/05/02 00:30:38;;;;;;;11.23;8.23;;;9.80;72.80;;;;;;5055613;28;20032;-67
2022/05/02 00:33:03;;;;;;;10.63;7.68;;;9.70;72.90;;;;;;5055664;28;20021;-67
2022/05/02 00:35:29;;;;;;;12.25;8.40;;;9.70;73.10;;;;;;5054164;28;20423;-67
2022/05/02 00:37:54;;;;;;;10.68;8.43;;;9.70;73.20;;;;;;5055549;28;20075;-67
2022/05/02 00:40:20;;;;;;;9.90;7.72;;;9.60;73.40;;;;;;5055180;28;20025;-67
2022/05/02 00:42:47;;;;;;;11.88;8.75;;;9.60;73.60;;;;;;5054185;28;20603;-67
2022/05/02 00:45:15;;;;;;;10.70;8.10;;;9.50;73.80;;;;;;5055226;28;20025;-67
2022/05/02 00:47:40;;;;;;;11.20;9.00;;;9.50;74.00;;;;;;5055356;28;20025;-67
2022/05/02 00:50:08;;;;;;;13.77;9.38;;;9.40;74.20;;;;;;5055258;28;20083;-67
2022/05/02 00:52:34;;;;;;;12.55;8.85;;;9.40;74.30;;;;;;5055299;28;20017;-67
2022/05/02 00:55:03;;;;;;;11.40;9.15;;;9.30;74.50;;;;;;5055173;28;20031;-67
2022/05/02 00:57:29;;;;;;;9.82;7.95;;;9.30;74.60;;;;;;5054813;28;20469;-67
2022/05/02 00:59:54;;;;;;;10.00;7.40;;;9.30;74.70;;;;;;5070381;28;20081;-67
2022/05/02 01:02:20;;;;;;;10.25;7.88;;;9.30;75.40;;;;;;5055049;28;20025;-67
2022/05/02 01:04:46;;;;;;;9.77;7.88;;;9.20;74.90;;;;;;5055008;28;20025;-67
2022/05/02 01:07:12;;;;;;;9.32;7.07;;;9.20;75.00;;;;;;5054922;28;20025;-67
2022/05/02 01:09:41;;;;;;;9.45;7.22;;;9.20;75.20;;;;;;5054847;28;20665;-67
2022/05/02 01:12:09;;;;;;;10.15;8.13;;;9.10;75.50;;;;;;5054859;28;20017;-67
2022/05/02 01:14:35;;;;;;;10.65;8.25;;;9.10;75.70;;;;;;5054556;28;20179;-67
2022/05/02 01:17:02;;;;;;;9.60;8.20;;;9.00;75.80;;;;;;5054762;28;20350;-67
2022/05/02 01:19:27;;;;;;;10.05;7.20;;;9.00;76.00;;;;;;5054343;28;20074;-67
2022/05/02 01:21:53;;;;;;;9.10;7.47;;;9.00;76.00;;;;;;5054736;28;20099;-67
2022/05/02 01:24:18;;;;;;;9.65;7.30;;;9.00;76.10;;;;;;5054579;28;20021;-67
2022/05/02 01:26:44;;;;;;;8.55;6.90;;;8.90;76.10;;;;;;5054464;28;20385;-67
2022/05/02 01:29:09;;;;;;;11.20;7.40;;;8.90;76.20;;;;;;5053065;28;20033;-67
2022/05/02 01:31:35;;;;;;;9.10;7.10;;;8.90;76.40;;;;;;5069992;28;20021;-67
2022/05/02 01:34:00;;;;;;;9.20;7.47;;;8.80;76.60;;;;;;5054468;28;20017;-67
2022/05/02 01:36:26;;;;;;;9.02;7.50;;;8.80;76.70;;;;;;5054449;28;20025;-67
2022/05/02 01:38:52;;;;;;;8.27;6.63;;;8.70;76.80;;;;;;5054293;28;20028;-67
2022/05/02 01:41:18;;;;;;;9.55;7.03;;;8.70;76.80;;;;;;5054128;28;20029;-67
2022/05/02 01:43:44;;;;;;;9.57;7.50;;;8.70;76.90;;;;;;5069615;28;20029;-67
2022/05/02 01:46:11;;;;;;;10.13;7.95;;;8.70;77.00;;;;;;5054090;28;20021;-67
2022/05/02 01:48:37;;;;;;;10.32;7.75;;;8.60;77.10;;;;;;5054217;28;20029;-67
2022/05/02 01:51:03;;;;;;;9.13;7.00;;;8.60;77.10;;;;;;5054098;28;20432;-67
2022/05/02 01:53:28;;;;;;;10.02;7.32;;;8.60;77.20;;;;;;5054106;28;20104;-67
2022/05/02 01:55:54;;;;;;;9.93;7.60;;;8.50;77.30;;;;;;5069446;28;20036;-67
2022/05/02 01:58:20;;;;;;;8.20;7.03;;;8.50;77.40;;;;;;5054033;28;20139;-67
2022/05/02 02:00:45;;;;;;;9.40;7.22;;;8.50;77.60;;;;;;5053807;28;20057;-67
2022/05/02 02:03:11;;;;;;;9.75;7.15;;;8.40;77.70;;;;;;5053856;28;20044;-67
2022/05/02 02:05:49;;;;;;;9.55;7.15;;;8.40;77.90;;;;;;5053794;28;20119;-67
2022/05/02 02:08:20;;;;;;;10.38;8.07;;;8.40;78.00;;;;;;5053877;28;20021;-67
2022/05/02 02:10:47;;;;;;;9.15;7.07;;;8.30;78.20;;;;;;5053820;28;20544;-67
2022/05/02 02:13:14;;;;;;;8.38;6.75;;;8.20;78.40;;;;;;5052612;28;20029;-67
2022/05/02 02:15:40;;;;;;;9.18;6.45;;;8.20;78.50;;;;;;5053444;28;20021;-67
2022/05/02 02:18:06;;;;;;;9.27;7.57;;;8.20;78.60;;;;;;5053583;28;20119;-67
2022/05/02 02:20:33;;;;;;;8.50;6.47;;;8.20;78.70;;;;;;5068913;28;20032;-67
2022/05/02 02:22:59;;;;;;;9.13;7.07;;;8.20;78.80;;;;;;5053513;28;20075;-67
2022/05/02 02:25:24;;;;;;;8.20;6.35;;;8.20;78.90;;;;;;5053485;28;20392;-67
2022/05/02 02:27:50;;;;;;;7.63;6.22;;;8.10;78.90;;;;;;5053367;28;20025;-67
2022/05/02 02:30:17;;;;;;;8.05;6.45;;;8.10;78.90;;;;;;5053220;28;20029;-67
2022/05/02 02:32:43;;;;;;;7.75;6.07;;;8.10;79.00;;;;;;5053444;28;20025;-67
2022/05/02 02:35:09;;;;;;;8.43;5.55;;;8.10;79.00;;;;;;5053196;28;20025;-67
2022/05/02 02:37:34;;;;;;;7.40;6.00;;;8.10;79.20;;;;;;5051990;28;20112;-67
2022/05/02 02:40:00;;;;;;;7.70;6.15;;;8.00;79.20;;;;;;5053001;28;20040;-67
2022/05/02 02:42:25;;;;;;;7.70;6.20;;;8.00;79.20;;;;;;5053260;28;20519;-67
2022/05/02 02:44:51;;;;;;;8.90;6.78;;;8.00;79.30;;;;;;5053014;28;20032;-67
2022/05/02 02:47:17;;;;;;;7.22;5.80;;;8.00;79.40;;;;;;5068509;28;20033;-67
2022/05/02 02:49:43;;;;;;;9.57;6.72;;;8.00;79.50;;;;;;5053060;28;20104;-67
2022/05/02 02:52:09;;;;;;;9.45;6.68;;;7.90;79.60;;;;;;5052838;28;20155;-67
2022/05/02 02:54:35;;;;;;;8.40;6.20;;;7.90;79.80;;;;;;5053015;28;20095;-72
2022/05/02 02:57:01;;;;;;;7.28;6.22;;;7.90;80.00;;;;;;5053032;28;20037;-67
2022/05/02 02:59:27;;;;;;;8.38;6.38;;;7.80;80.00;;;;;;5052875;28;20059;-67
2022/05/02 03:01:53;;;;;;;9.93;6.18;;;7.80;80.10;;;;;;5051340;28;20469;-67
2022/05/02 03:07:03;;;;;;;8.77;6.40;;;7.80;80.50;;;;;;5052844;28;20036;-67
2022/05/02 03:09:30;;;;;;;9.93;6.45;;;7.70;80.60;;;;;;5052580;28;20543;-67
2022/05/02 03:11:55;;;;;;;9.80;7.25;;;7.70;80.70;;;;;;5051358;28;20079;-67
2022/05/02 03:14:21;;;;;;;8.35;6.38;;;7.60;80.90;;;;;;5052556;28;20021;-67
2022/05/02 03:16:46;;;;;;;8.40;6.78;;;7.60;81.10;;;;;;5047827;28;20043;-67
2022/05/02 03:19:12;;;;;;;8.05;6.68;;;7.60;81.40;;;;;;5032389;28;20068;-67
2022/05/02 03:21:37;;;;;;;8.15;5.88;;;7.50;81.40;;;;;;5032529;28;20468;-67
2022/05/02 03:24:03;;;;;;;8.60;6.18;;;7.50;81.50;;;;;;5032565;28;20542;-67
2022/05/02 03:26:29;;;;;;;8.45;6.35;;;7.50;81.70;;;;;;5032388;28;20052;-67
2022/05/02 03:28:55;;;;;;;10.02;7.15;;;7.50;81.80;;;;;;5032435;28;20494;-67
2022/05/02 03:31:20;;;;;;;8.57;6.50;;;7.40;82.00;;;;;;5032286;28;20029;-66
2022/05/02 03:33:46;;;;;;;9.32;6.97;;;7.40;82.20;;;;;;5032699;28;20044;-67
2022/05/02 03:36:11;;;;;;;11.15;6.63;;;7.40;82.30;;;;;;5045956;28;20481;-67
2022/05/02 03:38:37;;;;;;;9.00;6.35;;;7.40;82.30;;;;;;5052309;28;20098;-67
2022/05/02 03:41:02;;;;;;;9.63;7.18;;;7.40;82.40;;;;;;5052145;28;20028;-67
2022/05/02 03:43:28;;;;;;;10.35;7.43;;;7.30;82.60;;;;;;5052178;28;20028;-67
2022/05/02 03:45:54;;;;;;;9.73;7.93;;;7.30;82.80;;;;;;5052170;28;20028;-67
2022/05/02 03:48:19;;;;;;;9.43;7.40;;;7.30;83.00;;;;;;5052012;28;20021;-67
2022/05/02 03:50:45;;;;;;;9.18;6.93;;;7.30;83.20;;;;;;5051479;28;20025;-67
2022/05/02 03:53:10;;;;;;;10.07;7.65;;;7.20;83.10;;;;;;5051955;28;20492;-67
2022/05/02 03:55:37;;;;;;;10.15;7.63;;;7.20;83.30;;;;;;5052135;28;20075;-67
2022/05/02 03:58:03;;;;;;;11.75;8.80;;;7.10;83.40;;;;;;5052179;28;20032;-67
2022/05/02 04:00:29;;;;;;;9.88;7.47;;;7.10;83.70;;;;;;5052020;28;20033;-67
2022/05/02 04:02:54;;;;;;;9.88;7.43;;;7.10;83.80;;;;;;5050581;28;20021;-67
2022/05/02 04:05:20;;;;;;;10.45;7.43;;;7.10;84.00;;;;;;5051876;28;20385;-67
2022/05/02 04:07:45;;;;;;;9.02;6.88;;;7.10;84.10;;;;;;5051946;28;20037;-67
2022/05/02 04:10:11;;;;;;;12.00;7.22;;;7.10;84.30;;;;;;5051936;28;20025;-67
2022/05/02 04:12:38;;;;;;;9.48;7.60;;;7.00;84.40;;;;;;5051880;28;20538;-67
2022/05/02 04:15:09;;;;;;;9.05;6.95;;;7.10;85.10;;;;;;5051793;28;20029;-67
2022/05/02 04:17:35;;;;;;;8.45;6.90;;;7.00;84.50;;;;;;5051570;28;20382;-66
2022/05/02 04:20:01;;;;;;;8.98;6.75;;;7.00;84.60;;;;;;5051839;28;20470;-67
2022/05/02 04:22:27;;;;;;;7.30;5.75;;;7.00;84.70;;;;;;5052029;28;20064;-67
2022/05/02 04:24:52;;;;;;;7.45;5.70;;;7.00;84.80;;;;;;5051752;28;20056;-67
2022/05/02 04:27:18;;;;;;;10.55;7.88;;;7.00;84.90;;;;;;5067133;28;20032;-67
2022/05/02 04:29:43;;;;;;;9.80;6.97;;;7.00;85.10;;;;;;5066451;28;20021;-67
2022/05/02 04:32:09;;;;;;;7.80;6.75;;;7.00;85.20;;;;;;5051202;28;20411;-66
2022/05/02 04:34:34;;;;;;;9.80;7.35;;;7.00;85.20;;;;;;5050716;28;20036;-67
2022/05/02 04:37:00;;;;;;;9.95;6.97;;;7.00;85.40;;;;;;5051529;28;20033;-67
2022/05/02 04:39:25;;;;;;;8.48;6.60;;;7.00;86.10;;;;;;5051763;28;20025;-67
2022/05/02 04:41:51;;;;;;;10.75;7.28;;;7.00;85.50;;;;;;5051452;28;20035;-67
2022/05/02 04:44:16;;;;;;;8.82;6.85;;;7.00;85.50;;;;;;5051673;28;20064;-67
2022/05/02 04:46:42;;;;;;;10.55;7.07;;;7.00;85.60;;;;;;5066822;28;20021;-67
2022/05/02 04:49:07;;;;;;;11.30;8.27;;;7.00;85.60;;;;;;5051717;28;20484;-67
2022/05/02 04:51:33;;;;;;;11.63;7.75;;;7.00;85.80;;;;;;5050189;28;20053;-67
2022/05/02 04:53:58;;;;;;;10.70;7.75;;;7.00;85.90;;;;;;5067132;28;20628;-67
2022/05/02 04:56:24;;;;;;;9.93;7.93;;;7.00;86.00;;;;;;5051463;28;20039;-67
2022/05/02 04:58:49;;;;;;;10.38;8.15;;;7.00;86.10;;;;;;5051422;28;20021;-67
2022/05/02 05:01:15;;;;;;;12.05;9.13;;;7.10;86.40;;;;;;5051382;28;20032;-67
2022/05/02 05:03:41;;;;;;;12.77;8.45;;;7.10;86.50;;;;;;5054022;28;20029;-67
2022/05/02 05:06:07;;;;;;;12.10;8.30;;;7.10;86.60;;;;;;5054919;28;20068;-67
2022/05/02 05:08:32;;;;;;;11.20;8.93;;;7.10;86.70;;;;;;5054934;28;20025;-67
2022/05/02 05:11:27;;;;;;;14.23;9.98;;;7.10;86.90;;;;;;5054933;28;20025;-67
2022/05/02 05:17:06;;;;;;;10.27;7.75;;;7.10;87.40;;;;;;5054770;28;20103;-66
2022/05/02 05:20:00;;;;;;;10.27;7.55;;;7.10;87.60;;;;;;5054395;28;20051;-66
2022/05/02 05:22:44;;;;;;;10.82;7.53;;;7.20;87.80;;;;;;5054611;28;20040;-66
2022/05/02 05:25:42;;;;;;;10.07;8.02;;;7.20;87.90;;;;;;5054560;28;20112;-66
2022/05/02 05:28:24;;;;;;;9.85;8.60;;;7.20;87.80;;;;;;5045823;28;20481;-66
2022/05/02 05:30:57;;;;;;;10.88;8.38;;;7.30;88.00;;;;;;5069959;28;20125;-66
2022/05/02 05:33:42;;;;;;;10.30;8.10;;;7.30;88.20;;;;;;5054382;28;20111;-66
2022/05/02 05:36:28;;;;;;;12.50;7.65;;;7.30;88.20;;;;;;5069105;28;20029;-66
2022/05/02 05:39:04;;;;;;;8.95;7.68;;;7.40;88.30;;;;;;5053959;28;20104;-66
2022/05/02 05:41:46;;;;;;;11.60;8.88;;;7.40;88.30;;;;;;5053777;28;20017;-66
2022/05/02 05:44:39;;;;;;;15.27;10.23;;;7.50;88.50;;;;;;5053993;28;20021;-66
2022/05/02 05:47:26;;;;;;;11.13;8.40;;;7.50;88.80;;;;;;5054122;28;20025;-66
2022/05/02 05:50:30;;;;;;;13.43;9.20;;;7.50;89.00;;;;;;5054252;28;20044;-66
2022/05/02 05:53:05;;;;;;;13.27;9.15;;;7.60;88.90;;;;;;5052858;28;20116;-66
2022/05/02 05:56:02;;;;;;;12.00;8.45;;;7.60;89.10;;;;;;5053964;28;20465;-66
2022/05/02 05:58:45;;;;;;;11.05;8.32;;;7.70;89.80;;;;;;5051044;28;20053;-66
2022/05/02 06:01:14;;;;;;;11.90;8.88;;;7.80;89.30;;;;;;5054051;28;20025;-66
2022/05/02 06:04:07;;;;;;;12.45;9.18;;;7.80;89.40;;;;;;5053467;28;20025;-67
2022/05/02 06:06:35;;;;;;;14.77;10.57;;;7.90;89.50;;;;;;5053542;28;20037;-66
2022/05/02 06:09:02;;;;;;;18.15;12.18;;;7.90;90.00;;;;;;5036243;28;20029;-66
2022/05/02 06:11:29;;;;;;;18.17;11.63;;;8.00;90.20;;;;;;5053898;28;20029;-66
2022/05/02 06:13:58;;;;;;;15.02;10.73;;;8.00;90.20;;;;;;5053105;28;20092;-66
2022/05/02 06:19:16;;;;;;;14.65;10.63;;;8.20;90.30;;;;;;5053521;28;20060;-66
2022/05/02 06:21:43;;;;;;;13.73;10.55;;;8.30;90.40;;;;;;5053585;28;20051;-66
2022/05/02 06:24:14;;;;;;;13.50;11.35;;;8.40;90.50;;;;;;5052234;28;20068;-66
2022/05/02 06:26:42;;;;;;;17.92;12.65;;;8.40;90.60;;;;;;5053483;28;20115;-66
2022/05/02 06:29:08;;;;;;;19.23;13.98;;;8.50;90.80;;;;;;5068900;28;20028;-67
2022/05/02 06:31:44;;;;;;;20.00;14.30;;;8.50;91.10;;;;;;5050940;28;20439;-67
2022/05/02 06:34:13;;;;;;;18.80;14.38;;;8.60;91.30;;;;;;5051438;28;20063;-66
2022/05/02 06:36:49;;;;;;;18.23;13.02;;;8.70;91.50;;;;;;5049825;28;20033;-67
2022/05/02 06:39:46;;;;;;;16.75;13.35;;;8.80;91.50;;;;;;5051473;28;20028;-66
2022/05/02 06:42:21;;;;;;;16.58;13.27;;;8.90;91.50;;;;;;5046501;28;20107;-66
2022/05/02 06:44:58;;;;;;;19.23;14.15;;;9.00;91.60;;;;;;5051314;28;20431;-67
2022/05/02 06:47:41;;;;;;;18.05;14.48;;;9.10;91.50;;;;;;5051108;28;20021;-66
2022/05/02 06:50:07;;;;;;;15.57;12.48;;;9.20;91.40;;;;;;5051333;28;20021;-66
2022/05/02 06:53:11;;;;;;;19.98;13.63;;;9.20;91.30;;;;;;5051133;28;20023;-66
2022/05/02 06:56:03;;;;;;;18.10;13.35;;;9.40;91.20;;;;;;5050535;28;20017;-67
2022/05/02 06:59:05;;;;;;;15.57;12.38;;;9.50;91.10;;;;;;5051161;28;20021;-66
2022/05/02 07:01:49;;;;;;;15.25;12.27;;;9.50;90.90;;;;;;5048181;28;20017;-66
2022/05/02 07:04:45;;;;;;;15.45;12.65;;;9.60;90.80;;;;;;5051605;28;20028;-66
2022/05/02 07:07:26;;;;;;;15.20;12.05;;;9.70;90.60;;;;;;5049461;28;20100;-67
2022/05/02 07:10:01;;;;;;;13.25;10.32;;;9.80;90.50;;;;;;5048733;28;20047;-66
2022/05/02 07:12:30;;;;;;;17.25;12.55;;;9.90;90.50;;;;;;5049036;28;20022;-66
2022/05/02 07:15:21;;;;;;;17.23;13.10;;;10.10;90.40;;;;;;5050555;28;20032;-66
2022/05/02 07:17:56;;;;;;;14.43;11.80;;;10.20;90.10;;;;;;5049438;28;20043;-66
2022/05/02 07:20:35;;;;;;;13.52;10.60;;;10.30;90.00;;;;;;5050696;28;20481;-66
2022/05/02 07:23:34;;;;;;;18.77;12.70;;;10.40;89.40;;;;;;5048687;28;20033;-66
2022/05/02 07:26:07;;;;;;;14.73;10.93;;;10.50;88.60;;;;;;5046284;28;20212;-66
2022/05/02 07:28:49;;;;;;;16.75;11.65;;;10.50;88.00;;;;;;5048031;28;20052;-66
2022/05/02 07:31:23;;;;;;;13.50;10.45;;;10.70;87.10;;;;;;5046568;28;20074;-66
2022/05/02 07:33:50;;;;;;;13.48;9.80;;;10.80;86.60;;;;;;5042143;28;20032;-66
2022/05/02 07:36:18;;;;;;;14.70;11.40;;;10.80;86.30;;;;;;5047703;28;20025;-67
2022/05/02 07:38:53;;;;;;;11.40;9.90;;;11.00;85.50;;;;;;5048188;28;20500;-67
2022/05/02 07:41:27;;;;;;;12.18;10.55;;;11.10;84.90;;;;;;5047825;28;20025;-67
2022/05/02 07:44:00;;;;;;;14.63;11.18;;;11.10;84.40;;;;;;5047556;28;20139;-67
2022/05/02 07:46:27;;;;;;;13.20;10.50;;;11.20;84.00;;;;;;5048199;28;20021;-66
2022/05/02 07:48:59;;;;;;;13.57;9.80;;;11.30;83.50;;;;;;5047517;28;20117;-67
2022/05/02 07:51:27;;;;;;;10.07;8.52;;;11.40;83.30;;;;;;5047685;28;20025;-66
2022/05/02 07:53:54;;;;;;;10.85;9.52;;;11.60;82.90;;;;;;5047781;28;20009;-67
2022/05/02 07:56:25;;;;;;;13.18;9.30;;;11.70;82.00;;;;;;5047430;28;20489;-67
2022/05/02 07:58:53;;;;;;;13.30;8.35;;;11.80;81.00;;;;;;5049808;28;20029;-67
2022/05/02 08:01:19;;;;;;;10.80;8.10;;;11.90;80.60;;;;;;5054335;28;20095;-67
2022/05/02 08:03:45;;;;;;;9.90;8.20;;;12.00;80.20;;;;;;5047354;28;20098;-67
2022/05/02 08:06:19;;;;;;;11.90;9.18;;;12.10;79.70;;;;;;5047508;28;20499;-67
2022/05/02 08:09:12;;;;;;;13.25;9.50;;;12.30;78.90;;;;;;5047877;28;20071;-67
2022/05/02 08:11:38;;;;;;;10.90;8.48;;;12.30;77.60;;;;;;5045747;28;20056;-67
2022/05/02 08:14:19;;;;;;;10.13;7.90;;;12.40;77.00;;;;;;5048455;28;20464;-67
2022/05/02 08:17:01;;;;;;;8.18;6.57;;;12.50;76.60;;;;;;5050185;28;20075;-67
2022/05/02 08:19:43;;;;;;;9.30;7.43;;;12.70;76.60;;;;;;5049854;28;20048;-67
2022/05/02 08:28:26;;;;;;;9.88;7.00;;;13.00;73.30;;;;;;5050764;28;20044;-67
2022/05/02 08:31:01;;;;;;;10.38;7.40;;;13.10;72.10;;;;;;5051628;28;20094;-67
2022/05/02 08:33:29;;;;;;;7.75;6.70;;;13.20;71.70;;;;;;5051502;28;20025;-67
2022/05/02 08:35:58;;;;;;;11.48;6.95;;;13.30;71.80;;;;;;5051279;28;20028;-67
2022/05/02 08:38:42;;;;;;;7.82;6.57;;;13.40;71.30;;;;;;5053845;28;20385;-67
2022/05/02 08:41:08;;;;;;;8.25;6.65;;;13.60;70.90;;;;;;5055423;28;20021;-67
2022/05/02 08:44:14;;;;;;;10.80;7.78;;;13.70;70.20;;;;;;5055612;28;20044;-67
2022/05/02 08:47:00;;;;;;;10.63;7.78;;;13.80;68.00;;;;;;5054109;28;20455;-67
2022/05/02 08:50:00;;;;;;;8.38;6.95;;;13.80;67.90;;;;;;5055263;28;20091;-67
2022/05/02 08:53:01;;;;;;;9.32;7.32;;;14.00;67.60;;;;;;5055213;28;20128;-67
2022/05/02 08:55:45;;;;;;;8.60;6.75;;;14.10;66.70;;;;;;5055092;28;20473;-67
2022/05/02 08:58:51;;;;;;;8.40;6.30;;;14.20;66.10;;;;;;5054605;28;20025;-66
2022/05/02 09:01:57;;;;;;;8.80;7.18;;;14.30;66.30;;;;;;5051232;28;20025;-67
2022/05/02 09:04:59;;;;;;;10.82;7.70;;;14.40;65.90;;;;;;5053494;28;20037;-66
2022/05/02 09:07:53;;;;;;;10.55;7.45;;;14.50;64.40;;;;;;5055004;28;20082;-67
2022/05/02 09:10:51;;;;;;;9.30;7.70;;;14.50;63.30;;;;;;5070326;28;20504;-66
2022/05/02 09:13:34;;;;;;;10.30;7.85;;;14.60;63.70;;;;;;5054728;28;20060;-67
2022/05/02 09:16:29;;;;;;;9.65;7.28;;;14.70;62.90;;;;;;5054638;28;20032;-67
2022/05/02 09:19:16;;;;;;;8.32;7.20;;;14.90;62.80;;;;;;5054640;28;20413;-66
2022/05/02 09:21:53;;;;;;;11.30;7.50;;;14.90;62.10;;;;;;5054579;28;20100;-67
2022/05/02 09:24:38;;;;;;;8.85;7.80;;;15.00;60.70;;;;;;5054066;28;20032;-67
2022/05/02 09:27:14;;;;;;;11.68;8.88;;;15.10;59.80;;;;;;5053938;28;20108;-67
2022/05/02 09:30:18;;;;;;;8.32;6.63;;;15.20;58.80;;;;;;5054317;28;20445;-66
2022/05/02 09:32:47;;;;;;;9.68;7.18;;;15.40;59.20;;;;;;5054653;28;20024;-67
2022/05/02 09:35:18;;;;;;;9.48;7.40;;;15.40;58.90;;;;;;5053989;28;20377;-67
2022/05/02 09:37:56;;;;;;;7.43;6.57;;;15.50;59.00;;;;;;5054337;28;20021;-67
2022/05/02 09:40:35;;;;;;;10.10;7.40;;;15.60;58.30;;;;;;5054080;28;20063;-66
2022/05/02 09:43:06;;;;;;;8.80;6.70;;;15.70;58.30;;;;;;5053905;28;20029;-67
2022/05/02 09:52:01;;;;;;;10.18;6.72;;;16.10;56.70;;;;;;5054144;28;20120;-66
2022/05/02 09:58:03;;;;;;;10.38;7.28;;;16.20;56.70;;;;;;5054075;28;20036;-66
2022/05/02 10:01:17;;;;;;;9.55;7.70;;;16.40;56.30;;;;;;5054053;28;20040;-66
2022/05/02 10:04:20;;;;;;;11.57;9.15;;;16.40;55.90;;;;;;5031565;28;20034;-66
2022/05/02 10:06:49;;;;;;;10.77;8.05;;;16.50;54.70;;;;;;5031654;28;20029;-67
2022/05/02 10:09:39;;;;;;;12.27;9.50;;;16.60;54.80;;;;;;5044375;28;20033;-66
2022/05/02 10:12:16;;;;;;;11.88;7.57;;;16.60;53.30;;;;;;5053818;28;20488;-66
2022/05/02 10:14:59;;;;;;;9.10;7.32;;;16.60;54.00;;;;;;5053202;28;20036;-66
2022/05/02 10:17:38;;;;;;;9.35;7.90;;;16.80;54.50;;;;;;5053459;28;20056;-66
2022/05/02 10:20:15;;;;;;;14.07;8.95;;;17.00;54.90;;;;;;5053437;28;20029;-66
2022/05/02 10:23:18;;;;;;;11.88;8.52;;;17.20;54.70;;;;;;5053160;28;20365;-66
2022/05/02 10:25:58;;;;;;;11.90;9.75;;;17.40;54.50;;;;;;5068136;28;20021;-67
2022/05/02 10:28:39;;;;;;;11.00;8.88;;;17.40;51.70;;;;;;5053389;28;20497;-66
2022/05/02 10:31:09;;;;;;;11.82;8.93;;;17.50;52.60;;;;;;5050210;28;20389;-66
2022/05/02 10:33:46;;;;;;;11.88;9.40;;;17.60;52.20;;;;;;5053483;28;20044;-66
2022/05/02 10:36:12;;;;;;;9.63;7.88;;;17.70;52.20;;;;;;5051838;28;20029;-66
2022/05/02 10:38:51;;;;;;;10.80;8.98;;;17.80;52.20;;;;;;5053732;28;20098;-66
2022/05/02 10:41:21;;;;;;;9.73;7.93;;;18.00;51.50;;;;;;5052742;28;20033;-66
2022/05/02 10:43:50;;;;;;;;;;;18.10;51.70;;;;;;5053451;28;20259;-66
2022/05/02 10:46:18;;;;;;;9.10;7.13;;;18.30;51.40;;;;;;5052145;28;20284;-66
2022/05/02 10:49:02;;;;;;;9.38;7.55;;;18.40;51.10;;;;;;5051299;28;20031;-66
2022/05/02 10:51:41;;;;;;;8.52;7.00;;;18.60;50.70;;;;;;5050745;28;20029;-66
2022/05/02 10:54:18;;;;;;;9.45;8.35;;;18.80;50.30;;;;;;5051584;28;20480;-66
2022/05/02 10:56:47;;;;;;;8.05;6.72;;;19.00;49.50;;;;;;5050935;28;20545;-66
2022/05/02 10:59:15;;;;;;;13.38;10.77;;;19.10;48.70;;;;;;5051087;28;20032;-67
2022/05/02 11:02:14;;;;;;;13.88;10.80;;;19.10;48.00;;;;;;5051076;28;20420;-66
2022/05/02 11:05:08;;;;;;;8.60;7.30;;;18.90;46.70;;;;;;5051172;28;20028;-66
2022/05/02 11:07:59;;;;;;;8.85;7.35;;;19.00;48.20;;;;;;5048276;28;20048;-67
2022/05/02 11:10:34;;;;;;;5.72;4.90;;;19.20;48.20;;;;;;5050762;28;20013;-66
2022/05/02 11:13:15;;;;;;;12.82;9.90;;;19.60;48.60;;;;;;5050964;28;20020;-67
2022/05/02 11:15:46;;;;;;;10.82;7.88;;;19.70;46.00;;;;;;5050962;28;20021;-66
2022/05/02 11:21:28;;;;;;;9.95;7.28;;;19.70;46.50;;;;;;5048500;28;20070;-66
2022/05/02 11:24:39;;;;;;;5.45;4.78;;;20.00;47.30;;;;;;5051321;28;20511;-66
2022/05/02 11:27:21;;;;;;;7.90;5.80;;;20.40;47.00;;;;;;5049541;28;20068;-66
2022/05/02 11:29:55;;;;;;;8.90;6.90;;;20.60;46.90;;;;;;5051018;28;20032;-67
2022/05/02 11:32:33;;;;;;;6.85;5.93;;;20.90;46.90;;;;;;5052322;28;20021;-66
2022/05/02 11:35:12;;;;;;;6.50;5.63;;;21.00;46.80;;;;;;5051996;28;20112;-66
2022/05/02 11:37:49;;;;;;;7.50;5.53;;;21.10;47.00;;;;;;5051981;28;20441;-66
2022/05/02 11:40:16;;;;;;;6.03;4.97;;;21.20;46.80;;;;;;5051951;28;20025;-66
2022/05/02 11:42:48;;;;;;;8.65;6.90;;;21.40;46.80;;;;;;5051828;28;20044;-66
2022/05/02 11:45:17;;;;;;;6.97;5.85;;;21.70;46.30;;;;;;5051677;28;20021;-66
2022/05/02 11:48:00;;;;;;;7.72;6.60;;;21.90;45.80;;;;;;5051604;28;20025;-67
2022/05/02 11:50:27;;;;;;;6.65;5.78;;;22.10;44.90;;;;;;5051647;28;20025;-66
2022/05/02 11:52:55;;;;;;;7.15;6.43;;;22.30;44.60;;;;;;5067473;28;20376;-66
2022/05/02 11:55:33;;;;;;;10.23;8.30;;;22.50;43.90;;;;;;5051794;28;20029;-66
2022/05/02 11:58:07;;;;;;;7.72;6.30;;;22.80;42.10;;;;;;5052317;28;20029;-67
2022/05/02 12:00:35;;;;;;;6.80;5.88;;;22.80;42.80;;;;;;5051801;28;20040;-67
2022/05/02 12:03:04;;;;;;;6.53;5.65;;;23.00;42.80;;;;;;5051628;28;20489;-67
2022/05/02 12:05:41;;;;;;;7.53;6.17;;;23.30;42.70;;;;;;5051748;28;20025;-66
2022/05/02 12:08:09;;;;;;;5.22;4.35;;;23.60;42.40;;;;;;5051503;28;20283;-67
2022/05/02 12:10:39;;;;;;;6.22;5.50;;;23.80;42.50;;;;;;5051372;28;20013;-67
2022/05/02 12:13:07;;;;;;;4.75;4.25;;;24.10;41.80;;;;;;5053641;28;20419;-67
2022/05/02 12:15:34;;;;;;;6.33;5.17;;;24.30;41.80;;;;;;5054230;28;20033;-67
2022/05/02 12:18:04;;;;;;;5.47;4.97;;;24.40;40.90;;;;;;5055627;28;20779;-67
2022/05/02 12:20:40;;;;;;;5.18;4.68;;;24.60;41.10;;;;;;5055932;28;20052;-67
2022/05/02 12:23:19;;;;;;;8.23;7.50;;;24.90;40.90;;;;;;5055037;28;20024;-66
2022/05/02 12:25:51;;;;;;;8.52;7.00;;;24.80;38.90;;;;;;5055648;28;20031;-66
2022/05/02 12:28:43;;;;;;;8.48;5.60;;;24.50;38.00;;;;;;5055697;28;20029;-66
2022/05/02 12:31:23;;;;;;;4.70;4.30;;;24.40;39.10;;;;;;5055474;28;20031;-66
2022/05/02 12:34:00;;;;;;;6.78;4.75;;;24.80;39.60;;;;;;5055616;28;20365;-67
2022/05/02 12:36:36;;;;;;;5.93;4.88;;;25.00;39.30;;;;;;5070831;28;20075;-66
2022/05/02 12:39:06;;;;;;;6.47;4.50;;;25.30;39.40;;;;;;5070790;28;20021;-66
2022/05/02 12:41:49;;;;;;;4.35;3.47;;;25.60;38.40;;;;;;5055349;28;20397;-66
2022/05/02 12:44:18;;;;;;;5.43;3.65;;;26.00;38.40;;;;;;5070579;28;20072;-66
2022/05/02 12:46:50;;;;;;;6.10;4.68;;;26.30;38.50;;;;;;5054869;28;20029;-67
2022/05/02 12:49:29;;;;;;;4.88;4.43;;;26.60;37.80;;;;;;5039545;28;20103;-68
2022/05/02 12:51:56;;;;;;;6.28;5.65;;;26.80;37.60;;;;;;5054495;28;20021;-68
2022/05/02 12:54:26;;;;;;;4.50;4.10;;;26.70;35.30;;;;;;5055132;28;20484;-68
2022/05/02 13:02:40;;;;;;;5.75;4.05;;;26.70;36.50;;;;;;5052649;28;20392;-67
2022/05/02 13:05:09;;;;;;;3.95;3.58;;;26.80;36.30;;;;;;5052848;28;20456;-67
2022/05/02 13:07:54;;;;;;;6.18;5.50;;;27.00;36.60;;;;;;5049858;28;20392;-67
2022/05/02 13:10:29;;;;;;;5.75;4.30;;;27.00;36.60;;;;;;5051435;28;20029;-68
2022/05/02 13:12:59;;;;;;;4.60;3.67;;;27.10;36.00;;;;;;5053261;28;20032;-68
2022/05/02 13:15:34;;;;;;;4.63;4.22;;;27.30;36.20;;;;;;5049905;28;20032;-67
2022/05/02 13:18:02;;;;;;;4.28;3.20;;;27.50;36.20;;;;;;5051772;28;20386;-67
2022/05/02 13:20:30;;;;;;;6.70;4.50;;;27.70;36.30;;;;;;5054211;28;20503;-68
2022/05/02 13:23:13;;;;;;;7.78;4.55;;;27.70;34.80;;;;;;5053804;28;20472;-68
2022/05/02 13:26:16;;;;;;;6.40;5.03;;;27.70;34.90;;;;;;5051217;28;20044;-68
2022/05/02 13:28:54;;;;;;;7.22;5.88;;;27.80;34.30;;;;;;5053045;28;20473;-68
2022/05/02 13:31:22;;;;;;;5.45;4.63;;;27.70;33.70;;;;;;5038334;28;20137;-68
2022/05/02 13:33:51;;;;;;;4.38;3.38;;;27.50;33.90;;;;;;5054018;28;20025;-68
2022/05/02 13:36:18;;;;;;;4.57;4.18;;;27.20;34.30;;;;;;5054239;28;20035;-68
2022/05/02 13:39:02;;;;;;;3.63;3.28;;;27.30;34.90;;;;;;5055045;28;20088;-68
2022/05/02 13:41:48;;;;;;;5.45;3.83;;;27.50;35.10;;;;;;5057595;28;20024;-68
2022/05/02 13:44:40;;;;;;;4.38;2.95;;;27.70;34.80;;;;;;5067338;28;20484;-68
2022/05/02 13:47:11;;;;;;;3.58;3.25;;;27.90;34.60;;;;;;5053512;28;20036;-68
2022/05/02 13:50:03;;;;;;;3.58;3.28;;;28.10;34.70;;;;;;5069648;28;20021;-68
2022/05/02 13:52:47;;;;;;;4.35;3.55;;;28.10;34.50;;;;;;5053959;28;20029;-68